Terminal Aerodrome Forecast
Issued by NWS

Home | Current Version | Previous Version | Text Only | Print | Product List | Glossary On
Versions: 1 2 3 4 5 6 7 8 9 10 11 12
000
FTUS46 KOTX 161720
TAFMWH
TAF
KMWH 161720Z 1618/1718 VRB04KT P6SM FEW250
     FM162000 22009KT P6SM SKC
     FM170000 26012G17KT P6SM SKC
     FM170500 32008KT P6SM SKC=

USA.gov is the U.S. government's official web portal to all federal, state and local government web resources and services.